createdAt,value
2018-11-25T00:00:18.620Z,8.97
2018-11-25T00:02:47.159Z,10.70
2018-11-25T00:05:15.715Z,10.40
2018-11-25T00:07:44.153Z,8.60
2018-11-25T00:10:12.590Z,12.63
2018-11-25T00:12:40.954Z,7.63
2018-11-25T00:15:09.836Z,9.80
2018-11-25T00:17:38.278Z,10.90
2018-11-25T00:20:09.962Z,10.53
2018-11-25T00:22:38.819Z,14.53
2018-11-25T00:25:09.259Z,8.20
2018-11-25T00:27:37.641Z,7.43
2018-11-25T00:30:09.494Z,10.57
2018-11-25T00:32:37.923Z,9.70
2018-11-25T00:35:07.879Z,6.47
2018-11-25T00:37:36.263Z,9.23
2018-11-25T00:40:06.439Z,8.60
2018-11-25T00:42:34.916Z,7.90
2018-11-25T00:45:03.694Z,10.63
2018-11-25T00:47:32.087Z,9.87
2018-11-25T00:50:00.498Z,7.70
2018-11-25T00:52:28.900Z,8.90
2018-11-25T00:54:57.323Z,6.50
2018-11-25T00:57:25.756Z,11.90
2018-11-25T00:59:54.251Z,7.03
2018-11-25T01:02:22.749Z,6.97
2018-11-25T01:04:51.166Z,7.93
2018-11-25T01:07:19.659Z,8.47
2018-11-25T01:09:48.262Z,9.17
2018-11-25T01:12:16.685Z,10.43
2018-11-25T01:14:45.153Z,7.50
2018-11-25T01:17:13.563Z,8.27
2018-11-25T01:19:41.974Z,11.83
2018-11-25T01:22:10.386Z,7.57
2018-11-25T01:24:38.869Z,8.30
2018-11-25T01:27:07.267Z,16.40
2018-11-25T01:29:35.738Z,9.27
2018-11-25T01:32:04.336Z,7.07
2018-11-25T01:34:32.747Z,9.00
2018-11-25T01:37:01.168Z,7.93
2018-11-25T01:39:29.607Z,8.73
2018-11-25T01:41:58.018Z,8.50
2018-11-25T01:44:26.471Z,11.13
2018-11-25T01:46:54.882Z,8.23
2018-11-25T01:49:23.664Z,9.43
2018-11-25T01:51:52.151Z,10.40
2018-11-25T01:54:20.544Z,8.27
2018-11-25T01:56:49.004Z,12.07
2018-11-25T01:59:17.452Z,14.73
2018-11-25T02:01:45.931Z,7.80
2018-11-25T02:04:14.671Z,9.83
2018-11-25T02:06:43.161Z,7.13
2018-11-25T02:09:11.948Z,6.10
2018-11-25T02:11:40.422Z,6.40
2018-11-25T02:14:09.169Z,8.50
2018-11-25T02:16:37.620Z,6.60
2018-11-25T02:19:06.459Z,9.77
2018-11-25T02:21:35.583Z,7.97
2018-11-25T02:24:04.382Z,9.37
2018-11-25T02:26:32.827Z,7.87
2018-11-25T02:29:01.230Z,7.37
2018-11-25T02:31:29.666Z,7.33
2018-11-25T02:33:58.094Z,10.33
2018-11-25T02:36:26.613Z,8.47
2018-11-25T02:38:55.016Z,8.63
2018-11-25T02:41:23.439Z,7.33
2018-11-25T02:43:51.870Z,7.30
2018-11-25T02:46:20.275Z,9.23
2018-11-25T02:48:48.682Z,7.57
2018-11-25T02:51:17.157Z,8.20
2018-11-25T02:53:45.534Z,12.50
2018-11-25T02:56:14.012Z,11.13
2018-11-25T02:58:42.460Z,7.77
2018-11-25T03:01:10.891Z,9.00
2018-11-25T03:03:39.666Z,6.13
2018-11-25T03:06:08.159Z,7.20
2018-11-25T03:08:36.613Z,8.07
2018-11-25T03:11:05.086Z,8.10
2018-11-25T03:13:33.493Z,7.80
2018-11-25T03:16:02.276Z,7.80
2018-11-25T03:18:30.711Z,5.23
2018-11-25T03:20:59.126Z,7.60
2018-11-25T03:23:27.558Z,11.37
2018-11-25T03:25:56.015Z,10.63
2018-11-25T03:28:24.475Z,11.13
2018-11-25T03:30:52.933Z,11.10
2018-11-25T03:33:21.389Z,14.67
2018-11-25T03:35:49.884Z,19.50
2018-11-25T03:38:18.290Z,34.53
2018-11-25T03:40:46.736Z,31.60
2018-11-25T03:43:15.234Z,22.27
2018-11-25T03:45:43.824Z,31.47
2018-11-25T03:48:12.211Z,28.73
2018-11-25T03:50:40.759Z,28.80
2018-11-25T03:53:09.177Z,41.50
2018-11-25T03:55:37.644Z,31.93
2018-11-25T03:58:06.538Z,19.50
2018-11-25T04:00:35.317Z,20.53
2018-11-25T04:03:03.751Z,29.20
2018-11-25T04:05:32.149Z,27.33
2018-11-25T04:08:00.576Z,29.73
2018-11-25T04:10:28.966Z,17.70
2018-11-25T04:12:57.543Z,20.67
2018-11-25T04:15:26.031Z,23.73
2018-11-25T04:17:54.515Z,22.23
2018-11-25T04:20:22.958Z,20.00
2018-11-25T04:22:51.370Z,26.27
2018-11-25T04:25:20.090Z,24.83
2018-11-25T04:27:48.488Z,21.20
2018-11-25T04:30:17.826Z,23.00
2018-11-25T04:32:47.294Z,17.33
2018-11-25T04:35:16.037Z,20.57
2018-11-25T04:37:44.487Z,16.20
2018-11-25T04:40:14.651Z,15.93
2018-11-25T04:42:43.068Z,25.23
2018-11-25T04:45:13.224Z,21.27
2018-11-25T04:47:41.731Z,18.27
2018-11-25T04:50:13.863Z,15.40
2018-11-25T04:52:42.279Z,17.60
2018-11-25T04:55:10.681Z,18.37
2018-11-25T04:57:39.078Z,21.60
2018-11-25T05:00:10.409Z,16.77
2018-11-25T05:02:39.191Z,18.50
2018-11-25T05:05:09.857Z,16.83
2018-11-25T05:07:38.322Z,19.37
2018-11-25T05:10:10.011Z,23.57
2018-11-25T05:12:38.395Z,25.27
2018-11-25T05:15:10.662Z,25.13
2018-11-25T05:17:39.051Z,22.67
2018-11-25T05:20:09.212Z,41.27
2018-11-25T05:22:37.592Z,28.00
2018-11-25T05:25:08.444Z,37.33
2018-11-25T05:27:36.860Z,62.50
2018-11-25T05:30:08.867Z,60.53
2018-11-25T05:32:37.363Z,44.70
2018-11-25T05:35:07.558Z,37.70
2018-11-25T05:37:35.968Z,43.40
2018-11-25T05:40:04.503Z,52.93
2018-11-25T05:42:32.914Z,46.57
2018-11-25T05:45:01.298Z,65.03
2018-11-25T05:47:29.730Z,95.37
2018-11-25T05:49:58.167Z,82.97
2018-11-25T05:52:26.597Z,36.53
2018-11-25T05:54:55.075Z,28.67
2018-11-25T05:57:23.506Z,33.47
2018-11-25T05:59:51.938Z,35.93
2018-11-25T06:02:20.343Z,45.90
2018-11-25T06:04:48.747Z,28.50
2018-11-25T06:07:17.217Z,41.30
2018-11-25T06:09:45.811Z,53.00
2018-11-25T06:12:14.238Z,65.43
2018-11-25T06:14:42.634Z,57.23
2018-11-25T06:17:11.086Z,60.23
2018-11-25T06:19:39.485Z,74.30
2018-11-25T06:22:07.989Z,51.77
2018-11-25T06:24:36.389Z,34.00
2018-11-25T06:27:04.840Z,55.10
2018-11-25T06:29:33.287Z,48.93
2018-11-25T06:32:01.701Z,37.20
2018-11-25T06:34:30.122Z,44.17
2018-11-25T06:36:58.579Z,37.53
2018-11-25T06:39:26.980Z,42.67
2018-11-25T06:41:55.390Z,47.57
2018-11-25T06:44:23.812Z,43.40
2018-11-25T06:46:52.405Z,27.47
2018-11-25T06:49:20.808Z,30.07
2018-11-25T06:51:49.245Z,26.40
2018-11-25T06:54:17.660Z,52.20
2018-11-25T06:56:46.076Z,38.00
2018-11-25T06:59:14.557Z,32.23
2018-11-25T07:01:43.251Z,40.20
2018-11-25T07:04:11.759Z,29.73
2018-11-25T07:06:40.247Z,39.00
2018-11-25T07:09:10.265Z,50.53
2018-11-25T07:11:38.667Z,65.77
2018-11-25T07:14:07.076Z,76.20
2018-11-25T07:16:35.508Z,62.53
2018-11-25T07:19:03.948Z,56.80
2018-11-25T07:21:32.377Z,66.93
2018-11-25T07:24:01.125Z,44.87
2018-11-25T07:26:29.544Z,65.27
2018-11-25T07:28:57.944Z,59.33
2018-11-25T07:31:26.374Z,73.97
2018-11-25T07:33:54.826Z,75.30
2018-11-25T07:36:23.206Z,69.90
2018-11-25T07:38:51.625Z,76.83
2018-11-25T07:41:20.046Z,64.97
2018-11-25T07:43:48.501Z,51.00
2018-11-25T07:46:16.930Z,72.67
2018-11-25T07:48:45.358Z,66.57
2018-11-25T07:51:13.774Z,70.10
2018-11-25T07:53:42.197Z,56.50
2018-11-25T07:56:10.616Z,45.07
2018-11-25T07:58:39.084Z,36.10
2018-11-25T08:01:07.562Z,50.47
2018-11-25T08:03:36.011Z,39.50
2018-11-25T08:06:05.161Z,64.23
2018-11-25T08:08:33.612Z,45.17
2018-11-25T08:11:02.050Z,52.97
2018-11-25T08:13:30.470Z,42.73
2018-11-25T08:15:58.931Z,51.27
2018-11-25T08:18:27.336Z,42.63
2018-11-25T08:20:55.714Z,45.93
2018-11-25T08:23:24.160Z,27.73
2018-11-25T08:25:52.827Z,33.57
2018-11-25T08:28:21.243Z,35.90
2018-11-25T08:30:49.676Z,27.07
2018-11-25T08:33:18.126Z,43.40
2018-11-25T08:35:46.538Z,31.47
2018-11-25T08:38:14.943Z,43.53
2018-11-25T08:40:43.482Z,37.57
2018-11-25T08:43:12.079Z,55.33
2018-11-25T08:45:40.550Z,48.07
2018-11-25T08:48:09.056Z,62.67
2018-11-25T08:50:37.474Z,41.10
2018-11-25T08:53:05.919Z,45.97
2018-11-25T08:55:34.393Z,47.63
2018-11-25T08:58:02.845Z,30.83
2018-11-25T09:00:31.260Z,37.33
2018-11-25T09:02:59.671Z,54.43
2018-11-25T09:05:28.140Z,66.87
2018-11-25T09:07:56.676Z,63.57
2018-11-25T09:10:25.111Z,89.80
2018-11-25T09:12:56.941Z,77.10
2018-11-25T09:15:27.689Z,115.70
2018-11-25T09:17:56.138Z,55.07
2018-11-25T09:20:24.581Z,58.37
2018-11-25T09:22:54.999Z,52.23
2018-11-25T09:25:25.676Z,69.60
2018-11-25T09:27:54.161Z,54.17
2018-11-25T09:30:24.712Z,75.67
2018-11-25T09:32:53.116Z,56.83
2018-11-25T09:35:21.661Z,57.17
2018-11-25T09:37:50.097Z,57.30
2018-11-25T09:40:20.642Z,63.10
2018-11-25T09:42:49.105Z,78.20
2018-11-25T09:45:18.495Z,68.67
2018-11-25T09:47:47.096Z,66.33
2018-11-25T09:50:16.726Z,62.87
2018-11-25T09:52:45.176Z,56.50
2018-11-25T09:55:15.864Z,63.87
2018-11-25T09:57:45.741Z,73.23
2018-11-25T10:00:18.222Z,73.13
2018-11-25T10:02:46.686Z,54.00
2018-11-25T10:05:15.209Z,50.47
2018-11-25T10:07:44.016Z,63.97
2018-11-25T10:10:14.619Z,45.13
2018-11-25T10:12:43.035Z,44.20
2018-11-25T10:15:13.990Z,62.17
2018-11-25T10:17:42.603Z,56.30
2018-11-25T10:20:13.417Z,50.80
2018-11-25T10:22:42.091Z,49.10
2018-11-25T10:25:11.622Z,33.23
2018-11-25T10:27:40.095Z,42.50
2018-11-25T10:30:17.000Z,32.70
2018-11-25T10:32:46.679Z,29.73
2018-11-25T10:35:15.090Z,45.67
2018-11-25T10:37:43.942Z,61.93
2018-11-25T10:40:15.721Z,55.77
2018-11-25T10:42:44.759Z,62.53
2018-11-25T10:45:15.098Z,52.47
2018-11-25T10:47:43.862Z,55.90
2018-11-25T10:50:13.835Z,46.30
2018-11-25T10:52:42.290Z,53.17
2018-11-25T10:55:12.255Z,67.83
2018-11-25T10:57:41.391Z,78.77
2018-11-25T11:00:16.097Z,71.63
2018-11-25T11:02:45.220Z,61.13
2018-11-25T11:05:19.100Z,51.60
2018-11-25T11:07:47.629Z,88.27
2018-11-25T11:10:16.139Z,83.40
2018-11-25T11:12:44.594Z,72.70
2018-11-25T11:15:13.939Z,66.23
2018-11-25T11:17:42.565Z,60.97
2018-11-25T11:20:11.884Z,28.67
2018-11-25T11:22:40.319Z,53.80
2018-11-25T11:25:09.428Z,43.53
2018-11-25T11:27:38.434Z,59.40
2018-11-25T11:30:09.932Z,49.27
2018-11-25T11:32:41.257Z,67.07
2018-11-25T11:35:10.293Z,60.60
2018-11-25T11:37:39.143Z,56.83
2018-11-25T11:40:10.153Z,51.00
2018-11-25T11:42:38.372Z,81.93
2018-11-25T11:45:09.939Z,76.40
2018-11-25T11:47:38.384Z,48.10
2018-11-25T11:50:10.264Z,95.57
2018-11-25T11:52:38.860Z,79.07
2018-11-25T11:55:09.311Z,107.40
2018-11-25T11:57:37.778Z,97.80
2018-11-25T12:00:11.772Z,82.43
2018-11-25T12:02:40.568Z,59.13
2018-11-25T12:05:09.082Z,55.57
2018-11-25T12:07:37.598Z,51.40
2018-11-25T12:10:09.667Z,80.17
2018-11-25T12:12:38.452Z,73.47
2018-11-25T12:15:14.946Z,64.13
2018-11-25T12:17:43.779Z,36.47
2018-11-25T12:20:12.270Z,42.60
2018-11-25T12:22:40.730Z,29.77
2018-11-25T12:25:12.726Z,42.10
2018-11-25T12:27:41.160Z,46.97
2018-11-25T12:30:11.980Z,37.37
2018-11-25T12:32:40.859Z,37.07
2018-11-25T12:35:10.642Z,32.60
2018-11-25T12:37:39.518Z,65.20
2018-11-25T12:40:10.719Z,46.97
2018-11-25T12:42:39.364Z,102.00
2018-11-25T12:45:16.153Z,114.93
2018-11-25T12:47:44.995Z,108.27
2018-11-25T12:50:14.982Z,116.53
2018-11-25T12:52:43.409Z,112.90
2018-11-25T12:55:16.875Z,68.37
2018-11-25T12:57:45.275Z,46.00
2018-11-25T13:00:22.862Z,71.40
2018-11-25T13:02:51.251Z,71.53
2018-11-25T13:05:19.710Z,102.87
2018-11-25T13:07:48.195Z,85.93
2018-11-25T13:10:16.609Z,67.50
2018-11-25T13:12:45.446Z,92.37
2018-11-25T13:15:14.346Z,77.93
2018-11-25T13:17:42.884Z,102.57
2018-11-25T13:20:12.919Z,89.90
2018-11-25T13:22:41.459Z,64.73
2018-11-25T13:25:11.286Z,88.70
2018-11-25T13:27:39.772Z,137.47
2018-11-25T13:30:15.202Z,88.20
2018-11-25T13:32:43.701Z,124.77
2018-11-25T13:35:12.275Z,78.20
2018-11-25T13:37:40.758Z,82.43
2018-11-25T13:40:11.524Z,79.50
2018-11-25T13:42:39.934Z,49.70
2018-11-25T13:45:07.241Z,66.53
2018-11-25T13:47:35.685Z,65.07
2018-11-25T13:50:04.222Z,58.93
2018-11-25T13:52:32.749Z,93.57
2018-11-25T13:55:01.328Z,117.53
2018-11-25T13:57:29.762Z,155.73
2018-11-25T13:59:59.791Z,58.10
2018-11-25T14:02:28.246Z,92.53
2018-11-25T14:04:57.952Z,153.30
2018-11-25T14:07:27.658Z,98.67
2018-11-25T14:09:56.128Z,60.47
2018-11-25T14:12:24.536Z,67.87
2018-11-25T14:14:52.996Z,58.17
2018-11-25T14:17:21.369Z,69.43
2018-11-25T14:19:49.795Z,88.63
2018-11-25T14:22:18.241Z,61.90
2018-11-25T14:24:46.682Z,53.33
2018-11-25T14:27:15.128Z,46.57
2018-11-25T14:29:43.545Z,52.27
2018-11-25T14:32:11.967Z,43.07
2018-11-25T14:34:40.504Z,36.37
2018-11-25T14:37:08.919Z,31.57
2018-11-25T14:39:37.367Z,37.20
2018-11-25T14:42:05.804Z,30.90
2018-11-25T14:44:34.229Z,34.87
2018-11-25T14:47:03.480Z,30.53
2018-11-25T14:49:32.029Z,33.80
2018-11-25T14:52:00.443Z,33.17
2018-11-25T14:54:28.879Z,29.90
2018-11-25T14:56:57.298Z,34.90
2018-11-25T14:59:25.807Z,36.23
2018-11-25T15:01:54.355Z,37.47
2018-11-25T15:04:22.800Z,48.93
2018-11-25T15:06:51.251Z,37.33
2018-11-25T15:09:19.847Z,51.40
2018-11-25T15:11:48.281Z,28.67
2018-11-25T15:14:16.852Z,41.40
2018-11-25T15:16:45.296Z,35.97
2018-11-25T15:19:13.746Z,32.40
2018-11-25T15:21:42.588Z,34.47
2018-11-25T15:24:11.014Z,37.00
2018-11-25T15:26:39.498Z,40.63
2018-11-25T15:29:08.049Z,31.07
2018-11-25T15:31:36.512Z,33.90
2018-11-25T15:34:04.958Z,30.63
2018-11-25T15:36:33.429Z,29.43
2018-11-25T15:39:01.824Z,32.40
2018-11-25T15:41:30.524Z,33.63
2018-11-25T15:43:58.931Z,29.87
2018-11-25T15:46:27.449Z,29.03
2018-11-25T15:48:55.839Z,39.50
2018-11-25T15:51:24.536Z,24.13
2018-11-25T15:53:53.188Z,37.37
2018-11-25T15:56:21.838Z,37.40
2018-11-25T15:58:50.288Z,33.27
2018-11-25T16:01:18.744Z,45.10
2018-11-25T16:03:47.170Z,28.90
2018-11-25T16:06:22.740Z,34.47
2018-11-25T16:08:51.196Z,33.43
2018-11-25T16:11:19.891Z,36.67
2018-11-25T16:13:48.533Z,25.77
2018-11-25T16:16:17.171Z,35.43
2018-11-25T16:18:45.679Z,35.93
2018-11-25T16:21:14.244Z,34.00
2018-11-25T16:23:43.165Z,31.40
2018-11-25T16:26:16.243Z,30.10
2018-11-25T16:28:46.554Z,31.17
2018-11-25T16:31:14.953Z,29.07
2018-11-25T16:33:43.744Z,43.00
2018-11-25T16:36:12.279Z,39.13
2018-11-25T16:38:40.698Z,33.90
2018-11-25T16:41:09.143Z,42.17
2018-11-25T16:43:37.626Z,42.27
2018-11-25T16:46:06.442Z,47.33
2018-11-25T16:48:34.879Z,30.87
2018-11-25T16:51:03.334Z,35.40
2018-11-25T16:53:31.776Z,42.80
2018-11-25T16:56:00.183Z,35.90
2018-11-25T16:58:28.611Z,46.00
2018-11-25T17:00:57.057Z,35.77
2018-11-25T17:03:25.460Z,36.17
2018-11-25T17:05:54.336Z,32.87
2018-11-25T17:08:31.892Z,54.30
2018-11-25T17:11:01.794Z,61.57
2018-11-25T17:13:28.781Z,57.23
2018-11-25T17:15:57.264Z,56.67
2018-11-25T17:18:25.691Z,49.97
2018-11-25T17:20:54.124Z,65.70
2018-11-25T17:23:22.682Z,59.50
2018-11-25T17:25:51.487Z,60.13
2018-11-25T17:28:20.072Z,51.70
2018-11-25T17:30:48.476Z,70.23
2018-11-25T17:33:16.887Z,67.67
2018-11-25T17:35:45.345Z,66.63
2018-11-25T17:38:13.800Z,54.00
2018-11-25T17:40:42.235Z,65.57
2018-11-25T17:43:12.655Z,38.67
2018-11-25T17:45:41.259Z,62.30
2018-11-25T17:48:09.832Z,45.80
2018-11-25T17:50:38.328Z,30.23
2018-11-25T17:53:07.282Z,41.50
2018-11-25T17:55:35.680Z,44.97
2018-11-25T17:58:04.461Z,45.07
2018-11-25T18:00:44.018Z,48.87
2018-11-25T18:03:16.183Z,45.37
2018-11-25T18:05:44.635Z,54.27
2018-11-25T18:08:13.091Z,49.27
2018-11-25T18:10:41.476Z,73.30
2018-11-25T18:13:10.359Z,43.17
2018-11-25T18:15:40.099Z,43.50
2018-11-25T18:18:11.753Z,50.07
2018-11-25T18:20:44.802Z,34.67
2018-11-25T18:23:13.277Z,41.83
2018-11-25T18:25:42.175Z,55.37
2018-11-25T18:28:11.721Z,52.03
2018-11-25T18:30:40.155Z,63.00
2018-11-25T18:33:08.776Z,81.00
2018-11-25T18:35:37.379Z,78.83
2018-11-25T18:38:06.300Z,122.80
2018-11-25T18:40:34.730Z,64.83
2018-11-25T18:43:03.186Z,58.13
2018-11-25T18:45:32.222Z,52.53
2018-11-25T18:48:00.728Z,54.10
2018-11-25T18:50:29.595Z,65.07
2018-11-25T18:52:58.061Z,54.10
2018-11-25T18:55:25.417Z,65.17
2018-11-25T18:57:53.840Z,51.30
2018-11-25T19:00:26.581Z,58.73
2018-11-25T19:02:55.151Z,40.23
2018-11-25T19:05:24.184Z,40.60
2018-11-25T19:07:52.667Z,38.13
2018-11-25T19:10:21.163Z,52.57
2018-11-25T19:12:49.634Z,93.77
2018-11-25T19:15:19.217Z,53.87
2018-11-25T19:17:47.887Z,47.40
2018-11-25T19:20:21.122Z,42.63
2018-11-25T19:22:49.564Z,39.03
2018-11-25T19:25:18.291Z,39.43
2018-11-25T19:27:47.959Z,49.37
2018-11-25T19:30:25.928Z,39.77
2018-11-25T19:32:48.619Z,48.13
2018-11-25T19:35:18.237Z,48.93
2018-11-25T19:37:47.710Z,46.07
2018-11-25T19:40:17.547Z,63.23
2018-11-25T19:42:45.995Z,47.20
2018-11-25T19:45:17.915Z,67.33
2018-11-25T19:47:46.370Z,70.13
2018-11-25T19:50:21.490Z,40.60
2018-11-25T19:52:50.186Z,49.10
2018-11-25T19:55:18.674Z,58.87
2018-11-25T19:57:47.217Z,57.73
2018-11-25T20:00:17.925Z,51.53
2018-11-25T20:02:46.504Z,57.13
2018-11-25T20:05:15.717Z,45.60
2018-11-25T20:07:45.092Z,37.17
2018-11-25T20:10:16.997Z,61.97
2018-11-25T20:12:47.102Z,130.97
2018-11-25T20:15:16.998Z,77.97
2018-11-25T20:17:53.681Z,116.57
2018-11-25T20:20:16.392Z,137.60
2018-11-25T20:22:45.072Z,83.23
2018-11-25T20:25:14.273Z,60.30
2018-11-25T20:27:44.846Z,48.70
2018-11-25T20:30:14.746Z,52.77
2018-11-25T20:32:48.535Z,99.00
2018-11-25T20:35:16.983Z,85.80
2018-11-25T20:37:50.713Z,92.67
2018-11-25T20:40:19.329Z,66.63
2018-11-25T20:42:47.791Z,74.20
2018-11-25T20:45:23.396Z,75.73
2018-11-25T20:47:51.908Z,66.97
2018-11-25T20:50:20.397Z,87.93
2018-11-25T20:52:54.303Z,74.70
2018-11-25T20:55:22.845Z,71.80
2018-11-25T20:57:51.479Z,63.77
2018-11-25T21:00:21.791Z,67.53
2018-11-25T21:02:50.260Z,72.30
2018-11-25T21:05:18.743Z,84.97
2018-11-25T21:07:47.215Z,63.93
2018-11-25T21:10:16.822Z,45.17
2018-11-25T21:12:46.620Z,62.33
2018-11-25T21:15:15.092Z,46.07
2018-11-25T21:17:43.570Z,47.33
2018-11-25T21:20:14.400Z,52.30
2018-11-25T21:22:42.832Z,46.77
2018-11-25T21:25:14.535Z,42.90
2018-11-25T21:27:43.068Z,40.37
2018-11-25T21:30:15.010Z,42.33
2018-11-25T21:32:43.963Z,43.40
2018-11-25T21:35:12.830Z,45.03
2018-11-25T21:37:41.269Z,37.93
2018-11-25T21:40:14.402Z,55.67
2018-11-25T21:42:42.835Z,45.53
2018-11-25T21:45:13.542Z,38.93
2018-11-25T21:47:42.131Z,47.87
2018-11-25T21:50:18.589Z,38.57
2018-11-25T21:52:47.003Z,51.57
2018-11-25T21:55:16.565Z,49.93
2018-11-25T21:57:45.027Z,37.50
2018-11-25T22:00:17.689Z,36.17
2018-11-25T22:02:46.396Z,50.37
2018-11-25T22:05:15.141Z,47.70
2018-11-25T22:07:43.614Z,45.20
2018-11-25T22:10:16.219Z,45.57
2018-11-25T22:12:45.014Z,40.53
2018-11-25T22:15:15.242Z,56.13
2018-11-25T22:17:43.838Z,49.67
2018-11-25T22:20:14.109Z,55.53
2018-11-25T22:22:42.957Z,42.50
2018-11-25T22:25:13.529Z,37.27
2018-11-25T22:27:41.985Z,46.57
2018-11-25T22:30:20.374Z,49.70
2018-11-25T22:32:48.856Z,40.23
2018-11-25T22:35:19.800Z,43.23
2018-11-25T22:37:48.278Z,42.30
2018-11-25T22:40:17.939Z,33.37
2018-11-25T22:42:47.289Z,40.07
2018-11-25T22:45:16.987Z,39.60
2018-11-25T22:47:45.391Z,41.50
2018-11-25T22:50:17.384Z,35.53
2018-11-25T22:52:45.843Z,34.10
2018-11-25T22:55:19.454Z,29.77
2018-11-25T22:57:47.891Z,37.23
2018-11-25T23:00:21.758Z,48.57
2018-11-25T23:02:50.284Z,48.60
2018-11-25T23:05:30.080Z,40.73
2018-11-25T23:07:58.606Z,50.40
2018-11-25T23:10:27.045Z,51.03
2018-11-25T23:12:55.495Z,52.27
2018-11-25T23:15:24.004Z,45.67
2018-11-25T23:17:52.449Z,46.37
2018-11-25T23:20:21.064Z,38.60
2018-11-25T23:22:49.535Z,57.30
2018-11-25T23:25:18.012Z,55.13
2018-11-25T23:27:46.449Z,51.90
2018-11-25T23:30:15.290Z,94.83
2018-11-25T23:32:43.687Z,115.83
2018-11-25T23:35:14.987Z,129.80
2018-11-25T23:37:43.584Z,141.07
2018-11-25T23:40:12.127Z,92.90
2018-11-25T23:42:40.960Z,56.43
2018-11-25T23:45:12.859Z,52.33
2018-11-25T23:47:41.349Z,55.03
2018-11-25T23:50:12.670Z,49.53
2018-11-25T23:52:41.948Z,42.03
2018-11-25T23:55:12.459Z,47.93
2018-11-25T23:57:41.518Z,64.03
